sensor_id;sensor_type;location;lat;lon;timestamp;pressure;altitude;pressure_sealevel;temperature;humidity
6345;BME280;3205;42.666;23.264;2023-07-29T00:00:56;94303.00;;;18.51;100.00
6345;BME280;3205;42.666;23.264;2023-07-29T00:03:22;94304.88;;;18.50;100.00
6345;BME280;3205;42.666;23.264;2023-07-29T00:05:48;94303.00;;;18.47;100.00
6345;BME280;3205;42.666;23.264;2023-07-29T00:08:15;94309.47;;;18.43;100.00
6345;BME280;3205;42.666;23.264;2023-07-29T00:10:41;94312.91;;;18.33;100.00
6345;BME280;3205;42.666;23.264;2023-07-29T00:13:08;94322.47;;;18.30;100.00
6345;BME280;3205;42.666;23.264;2023-07-29T00:15:34;94312.16;;;18.25;100.00
6345;BME280;3205;42.666;23.264;2023-07-29T00:18:00;94309.47;;;18.22;100.00
6345;BME280;3205;42.666;23.264;2023-07-29T00:20:26;94304.88;;;18.22;100.00
6345;BME280;3205;42.666;23.264;2023-07-29T00:22:52;94302.16;;;18.15;100.00
6345;BME280;3205;42.666;23.264;2023-07-29T00:25:19;94303.72;;;18.20;100.00
6345;BME280;3205;42.666;23.264;2023-07-29T00:27:46;94301.84;;;18.20;100.00
6345;BME280;3205;42.666;23.264;2023-07-29T00:30:12;94305.22;;;18.17;100.00
6345;BME280;3205;42.666;23.264;2023-07-29T00:32:38;94296.44;;;18.13;100.00
6345;BME280;3205;42.666;23.264;2023-07-29T00:35:06;94291.84;;;18.07;100.00
6345;BME280;3205;42.666;23.264;2023-07-29T00:37:32;94296.44;;;18.06;100.00
6345;BME280;3205;42.666;23.264;2023-07-29T00:39:58;94290.69;;;17.97;100.00
6345;BME280;3205;42.666;23.264;2023-07-29T00:42:24;94292.97;;;17.95;100.00
6345;BME280;3205;42.666;23.264;2023-07-29T00:44:51;94299.47;;;18.01;100.00
6345;BME280;3205;42.666;23.264;2023-07-29T00:47:18;94295.28;;;17.93;100.00
6345;BME280;3205;42.666;23.264;2023-07-29T00:49:45;94292.22;;;17.91;100.00
6345;BME280;3205;42.666;23.264;2023-07-29T00:52:11;94300.25;;;17.95;100.00
6345;BME280;3205;42.666;23.264;2023-07-29T00:54:38;94292.59;;;17.93;100.00
6345;BME280;3205;42.666;23.264;2023-07-29T00:57:05;94288.41;;;17.96;100.00
6345;BME280;3205;42.666;23.264;2023-07-29T00:59:32;94292.22;;;17.91;100.00
6345;BME280;3205;42.666;23.264;2023-07-29T01:01:59;94288.75;;;17.94;100.00
6345;BME280;3205;42.666;23.264;2023-07-29T01:04:26;94283.78;;;17.89;100.00
6345;BME280;3205;42.666;23.264;2023-07-29T01:06:58;94285.31;;;17.84;100.00
6345;BME280;3205;42.666;23.264;2023-07-29T01:09:33;94291.03;;;17.79;100.00
6345;BME280;3205;42.666;23.264;2023-07-29T01:12:10;94285.69;;;17.79;100.00
6345;BME280;3205;42.666;23.264;2023-07-29T01:14:42;94281.50;;;17.85;100.00
6345;BME280;3205;42.666;23.264;2023-07-29T01:17:13;94283.41;;;17.94;100.00
6345;BME280;3205;42.666;23.264;2023-07-29T01:20:00;94281.91;;;17.93;100.00
6345;BME280;3205;42.666;23.264;2023-07-29T01:22:27;94287.25;;;17.97;100.00
6345;BME280;3205;42.666;23.264;2023-07-29T01:24:54;94294.09;;;17.84;100.00
6345;BME280;3205;42.666;23.264;2023-07-29T01:27:20;94286.06;;;17.77;100.00
6345;BME280;3205;42.666;23.264;2023-07-29T01:29:46;94285.31;;;17.77;100.00
6345;BME280;3205;42.666;23.264;2023-07-29T01:32:17;94284.56;;;17.83;100.00
6345;BME280;3205;42.666;23.264;2023-07-29T01:34:48;94284.19;;;17.88;100.00
6345;BME280;3205;42.666;23.264;2023-07-29T01:37:19;94286.88;;;17.95;100.00
6345;BME280;3205;42.666;23.264;2023-07-29T01:39:49;94287.63;;;17.99;100.00
6345;BME280;3205;42.666;23.264;2023-07-29T01:42:17;94285.72;;;17.92;100.00
6345;BME280;3205;42.666;23.264;2023-07-29T01:44:43;94286.09;;;17.91;100.00
6345;BME280;3205;42.666;23.264;2023-07-29T01:47:10;94282.28;;;17.95;100.00
6345;BME280;3205;42.666;23.264;2023-07-29T01:49:37;94293.34;;;17.94;100.00
6345;BME280;3205;42.666;23.264;2023-07-29T01:52:03;94284.94;;;17.95;100.00
6345;BME280;3205;42.666;23.264;2023-07-29T01:54:29;94284.94;;;17.95;100.00
6345;BME280;3205;42.666;23.264;2023-07-29T01:56:55;94292.22;;;17.91;100.00
6345;BME280;3205;42.666;23.264;2023-07-29T01:59:22;94289.53;;;17.88;100.00
6345;BME280;3205;42.666;23.264;2023-07-29T02:01:48;94287.25;;;17.83;100.00
6345;BME280;3205;42.666;23.264;2023-07-29T02:04:14;94286.84;;;17.78;100.00
6345;BME280;3205;42.666;23.264;2023-07-29T02:06:40;94289.13;;;17.76;100.00
6345;BME280;3205;42.666;23.264;2023-07-29T02:09:07;94288.38;;;17.79;100.00
6345;BME280;3205;42.666;23.264;2023-07-29T02:11:33;94284.16;;;17.74;100.00
6345;BME280;3205;42.666;23.264;2023-07-29T02:13:59;94286.81;;;17.71;100.00
6345;BME280;3205;42.666;23.264;2023-07-29T02:16:26;94284.88;;;17.64;100.00
6345;BME280;3205;42.666;23.264;2023-07-29T02:18:52;94293.28;;;17.59;100.00
6345;BME280;3205;42.666;23.264;2023-07-29T02:21:18;94286.34;;;17.44;100.00
6345;BME280;3205;42.666;23.264;2023-07-29T02:23:44;94289.41;;;17.43;100.00
6345;BME280;3205;42.666;23.264;2023-07-29T02:26:11;94294.72;;;17.36;100.00
6345;BME280;3205;42.666;23.264;2023-07-29T02:28:37;94300.06;;;17.32;100.00
6345;BME280;3205;42.666;23.264;2023-07-29T02:31:13;94300.06;;;17.32;100.00
6345;BME280;3205;42.666;23.264;2023-07-29T02:33:40;94294.75;;;17.39;100.00
6345;BME280;3205;42.666;23.264;2023-07-29T02:36:07;94300.50;;;17.41;100.00
6345;BME280;3205;42.666;23.264;2023-07-29T02:38:33;94296.66;;;17.39;100.00
6345;BME280;3205;42.666;23.264;2023-07-29T02:40:59;94292.44;;;17.34;100.00
6345;BME280;3205;42.666;23.264;2023-07-29T02:43:25;94289.34;;;17.29;100.00
6345;BME280;3205;42.666;23.264;2023-07-29T02:45:51;94296.16;;;17.19;100.00
6345;BME280;3205;42.666;23.264;2023-07-29T02:48:17;94298.41;;;17.14;100.00
6345;BME280;3205;42.666;23.264;2023-07-29T02:50:44;94301.81;;;17.04;100.00
6345;BME280;3205;42.666;23.264;2023-07-29T02:53:10;94298.75;;;17.02;100.00
6345;BME280;3205;42.666;23.264;2023-07-29T02:55:39;94304.81;;;16.96;100.00
6345;BME280;3205;42.666;23.264;2023-07-29T02:58:05;94297.91;;;16.88;100.00
6345;BME280;3205;42.666;23.264;2023-07-29T03:00:31;94295.97;;;16.81;100.00
6345;BME280;3205;42.666;23.264;2023-07-29T03:02:58;94306.69;;;16.88;100.00
6345;BME280;3205;42.666;23.264;2023-07-29T03:05:24;94312.75;;;16.82;100.00
6345;BME280;3205;42.666;23.264;2023-07-29T03:07:53;94311.97;;;16.81;100.00
6345;BME280;3205;42.666;23.264;2023-07-29T03:10:19;94306.19;;;16.72;100.00
6345;BME280;3205;42.666;23.264;2023-07-29T03:12:46;94311.16;;;16.70;100.00
6345;BME280;3205;42.666;23.264;2023-07-29T03:15:12;94320.31;;;16.73;100.00
6345;BME280;3205;42.666;23.264;2023-07-29T03:17:38;94313.13;;;16.80;100.00
6345;BME280;3205;42.666;23.264;2023-07-29T03:20:06;94310.81;;;16.75;100.00
6345;BME280;3205;42.666;23.264;2023-07-29T03:22:32;94314.19;;;16.72;100.00
6345;BME280;3205;42.666;23.264;2023-07-29T03:24:59;94314.59;;;16.71;100.00
6345;BME280;3205;42.666;23.264;2023-07-29T03:27:25;94318.44;;;16.77;100.00
6345;BME280;3205;42.666;23.264;2023-07-29T03:29:51;94320.78;;;16.82;100.00
6345;BME280;3205;42.666;23.264;2023-07-29T03:32:17;94316.97;;;16.86;100.00
6345;BME280;3205;42.666;23.264;2023-07-29T03:34:44;94316.59;;;16.88;100.00
6345;BME280;3205;42.666;23.264;2023-07-29T03:37:10;94311.31;;;16.95;100.00
6345;BME280;3205;42.666;23.264;2023-07-29T03:39:36;94312.81;;;16.96;100.00
6345;BME280;3205;42.666;23.264;2023-07-29T03:42:03;94311.72;;;17.04;100.00
6345;BME280;3205;42.666;23.264;2023-07-29T03:44:29;94309.81;;;17.01;100.00
6345;BME280;3205;42.666;23.264;2023-07-29T03:46:56;94313.63;;;17.00;100.00
6345;BME280;3205;42.666;23.264;2023-07-29T03:49:22;94311.31;;;16.95;100.00
6345;BME280;3205;42.666;23.264;2023-07-29T03:51:48;94315.56;;;17.09;100.00
6345;BME280;3205;42.666;23.264;2023-07-29T03:54:14;94315.28;;;17.25;100.00
6345;BME280;3205;42.666;23.264;2023-07-29T03:56:40;94313.91;;;17.55;100.00
6345;BME280;3205;42.666;23.264;2023-07-29T03:59:11;94308.97;;;17.75;100.00
6345;BME280;3205;42.666;23.264;2023-07-29T04:01:37;94311.34;;;17.97;100.00
6345;BME280;3205;42.666;23.264;2023-07-29T04:04:03;94319.75;;;18.16;100.00
6345;BME280;3205;42.666;23.264;2023-07-29T04:06:30;94324.75;;;18.49;100.00
6345;BME280;3205;42.666;23.264;2023-07-29T04:08:57;94325.97;;;19.86;100.00
6345;BME280;3205;42.666;23.264;2023-07-29T04:11:24;94324.97;;;21.58;100.00
6345;BME280;3205;42.666;23.264;2023-07-29T04:13:50;94328.84;;;22.13;100.00
6345;BME280;3205;42.666;23.264;2023-07-29T04:16:16;94320.38;;;22.41;100.00
6345;BME280;3205;42.666;23.264;2023-07-29T04:18:43;94320.75;;;22.89;100.00
6345;BME280;3205;42.666;23.264;2023-07-29T04:21:09;94321.19;;;22.87;100.00
6345;BME280;3205;42.666;23.264;2023-07-29T04:23:35;94322.00;;;23.49;100.00
6345;BME280;3205;42.666;23.264;2023-07-29T04:26:01;94330.41;;;25.12;100.00
6345;BME280;3205;42.666;23.264;2023-07-29T04:28:27;94330.28;;;26.66;83.94
6345;BME280;3205;42.666;23.264;2023-07-29T04:30:53;94331.09;;;28.23;69.65
6345;BME280;3205;42.666;23.264;2023-07-29T04:33:21;94331.53;;;29.57;59.35
6345;BME280;3205;42.666;23.264;2023-07-29T04:35:47;94329.50;;;30.38;53.14
6345;BME280;3205;42.666;23.264;2023-07-29T04:38:13;94334.13;;;31.29;49.88
6345;BME280;3205;42.666;23.264;2023-07-29T04:40:39;94335.91;;;32.45;47.31
6345;BME280;3205;42.666;23.264;2023-07-29T04:43:05;94344.94;;;33.28;43.43
6345;BME280;3205;42.666;23.264;2023-07-29T04:45:31;94328.50;;;33.88;41.59
6345;BME280;3205;42.666;23.264;2023-07-29T04:47:58;94336.50;;;34.11;40.13
6345;BME280;3205;42.666;23.264;2023-07-29T04:50:25;94330.34;;;34.42;39.25
6345;BME280;3205;42.666;23.264;2023-07-29T04:52:53;94333.09;;;35.40;37.83
6345;BME280;3205;42.666;23.264;2023-07-29T04:55:19;94339.56;;;35.89;36.10
6345;BME280;3205;42.666;23.264;2023-07-29T04:57:45;94340.72;;;36.35;35.38
6345;BME280;3205;42.666;23.264;2023-07-29T05:00:11;94352.53;;;36.52;34.60
6345;BME280;3205;42.666;23.264;2023-07-29T05:02:38;94350.31;;;36.62;34.22
6345;BME280;3205;42.666;23.264;2023-07-29T05:05:04;94352.00;;;36.37;35.33
6345;BME280;3205;42.666;23.264;2023-07-29T05:07:31;94357.03;;;35.75;34.84
6345;BME280;3205;42.666;23.264;2023-07-29T05:09:57;94362.28;;;35.73;34.72
6345;BME280;3205;42.666;23.264;2023-07-29T05:12:24;94366.25;;;36.31;33.99
6345;BME280;3205;42.666;23.264;2023-07-29T05:14:50;94372.09;;;37.04;33.46
6345;BME280;3205;42.666;23.264;2023-07-29T05:17:16;94371.31;;;37.58;32.80
6345;BME280;3205;42.666;23.264;2023-07-29T05:19:42;94373.25;;;38.41;31.58
6345;BME280;3205;42.666;23.264;2023-07-29T05:22:08;94368.84;;;38.97;30.17
6345;BME280;3205;42.666;23.264;2023-07-29T05:24:36;94368.25;;;39.86;30.69
6345;BME280;3205;42.666;23.264;2023-07-29T05:27:02;94369.50;;;40.64;28.93
6345;BME280;3205;42.666;23.264;2023-07-29T05:29:28;94369.09;;;40.79;27.99
6345;BME280;3205;42.666;23.264;2023-07-29T05:31:54;94371.63;;;41.39;27.69
6345;BME280;3205;42.666;23.264;2023-07-29T05:34:22;94366.41;;;41.49;27.64
6345;BME280;3205;42.666;23.264;2023-07-29T05:36:48;94378.50;;;42.16;26.92
6345;BME280;3205;42.666;23.264;2023-07-29T05:39:14;94377.03;;;42.02;26.33
6345;BME280;3205;42.666;23.264;2023-07-29T05:41:41;94372.69;;;41.49;27.45
6345;BME280;3205;42.666;23.264;2023-07-29T05:44:07;94376.91;;;42.20;27.18
6345;BME280;3205;42.666;23.264;2023-07-29T05:46:33;94382.19;;;42.57;26.60
6345;BME280;3205;42.666;23.264;2023-07-29T05:49:01;94377.44;;;42.32;26.32
6345;BME280;3205;42.666;23.264;2023-07-29T05:51:28;94377.75;;;42.28;26.56
6345;BME280;3205;42.666;23.264;2023-07-29T05:53:54;94382.50;;;41.94;25.58
6345;BME280;3205;42.666;23.264;2023-07-29T05:56:20;94373.72;;;42.03;25.59
6345;BME280;3205;42.666;23.264;2023-07-29T05:58:49;94381.41;;;42.36;25.39
6345;BME280;3205;42.666;23.264;2023-07-29T06:01:15;94385.56;;;42.30;25.10
6345;BME280;3205;42.666;23.264;2023-07-29T06:03:42;94389.84;;;42.05;25.37
6345;BME280;3205;42.666;23.264;2023-07-29T06:06:08;94383.31;;;42.28;25.21
6345;BME280;3205;42.666;23.264;2023-07-29T06:08:34;94391.81;;;43.23;25.02
6345;BME280;3205;42.666;23.264;2023-07-29T06:11:00;94374.03;;;43.74;23.57
6345;BME280;3205;42.666;23.264;2023-07-29T06:13:26;94375.25;;;43.86;24.61
6345;BME280;3205;42.666;23.264;2023-07-29T06:15:53;94369.38;;;44.25;23.79
6345;BME280;3205;42.666;23.264;2023-07-29T06:18:19;94380.88;;;44.21;24.38
6345;BME280;3205;42.666;23.264;2023-07-29T06:20:45;94372.19;;;43.97;24.02
6345;BME280;3205;42.666;23.264;2023-07-29T06:23:11;94376.84;;;42.72;24.44
6345;BME280;3205;42.666;23.264;2023-07-29T06:25:38;94367.56;;;44.07;24.73
6345;BME280;3205;42.666;23.264;2023-07-29T06:28:04;94365.88;;;43.76;23.92
6345;BME280;3205;42.666;23.264;2023-07-29T06:30:30;94365.13;;;43.27;24.52
6345;BME280;3205;42.666;23.264;2023-07-29T06:32:57;94360.59;;;43.65;24.04
6345;BME280;3205;42.666;23.264;2023-07-29T06:35:23;94360.47;;;44.33;23.55
6345;BME280;3205;42.666;23.264;2023-07-29T06:37:49;94357.38;;;44.44;23.59
6345;BME280;3205;42.666;23.264;2023-07-29T06:40:16;94356.78;;;45.03;22.82
6345;BME280;3205;42.666;23.264;2023-07-29T06:42:42;94353.00;;;44.71;23.14
6345;BME280;3205;42.666;23.264;2023-07-29T06:45:09;94350.56;;;43.62;23.72
6345;BME280;3205;42.666;23.264;2023-07-29T06:47:35;94352.34;;;43.80;24.27
6345;BME280;3205;42.666;23.264;2023-07-29T06:50:03;94346.31;;;43.68;24.59
6345;BME280;3205;42.666;23.264;2023-07-29T06:52:29;94351.31;;;44.68;23.62
6345;BME280;3205;42.666;23.264;2023-07-29T06:54:55;94355.22;;;44.73;24.06
6345;BME280;3205;42.666;23.264;2023-07-29T06:57:21;94357.38;;;45.17;22.99
6345;BME280;3205;42.666;23.264;2023-07-29T06:59:47;94357.94;;;45.15;23.46
6345;BME280;3205;42.666;23.264;2023-07-29T07:02:13;94354.41;;;45.52;22.48
6345;BME280;3205;42.666;23.264;2023-07-29T07:04:40;94361.25;;;46.11;23.23
6345;BME280;3205;42.666;23.264;2023-07-29T07:07:06;94357.63;;;46.33;21.79
6345;BME280;3205;42.666;23.264;2023-07-29T07:09:32;94358.63;;;46.67;21.32
6345;BME280;3205;42.666;23.264;2023-07-29T07:11:59;94354.59;;;45.54;21.92
6345;BME280;3205;42.666;23.264;2023-07-29T07:14:28;94356.78;;;46.08;21.75
6345;BME280;3205;42.666;23.264;2023-07-29T07:16:54;94351.78;;;45.84;21.81
6345;BME280;3205;42.666;23.264;2023-07-29T07:19:20;94352.56;;;45.70;22.21
6345;BME280;3205;42.666;23.264;2023-07-29T07:21:46;94354.00;;;45.93;21.14
6345;BME280;3205;42.666;23.264;2023-07-29T07:24:13;94352.56;;;45.32;21.62
6345;BME280;3205;42.666;23.264;2023-07-29T07:26:39;94350.38;;;43.88;22.37
6345;BME280;3205;42.666;23.264;2023-07-29T07:29:05;94339.75;;;44.14;23.69
6345;BME280;3205;42.666;23.264;2023-07-29T07:31:33;94344.63;;;44.71;22.56
6345;BME280;3205;42.666;23.264;2023-07-29T07:34:00;94338.75;;;45.79;21.70
6345;BME280;3205;42.666;23.264;2023-07-29T07:36:27;94344.81;;;46.15;21.11
6345;BME280;3205;42.666;23.264;2023-07-29T07:38:53;94336.25;;;46.60;21.95
6345;BME280;3205;42.666;23.264;2023-07-29T07:41:20;94343.59;;;45.64;21.67
6345;BME280;3205;42.666;23.264;2023-07-29T07:43:47;94337.09;;;45.16;21.62
6345;BME280;3205;42.666;23.264;2023-07-29T07:46:13;94346.44;;;43.35;23.32
6345;BME280;3205;42.666;23.264;2023-07-29T07:48:40;94342.13;;;43.82;22.54
6345;BME280;3205;42.666;23.264;2023-07-29T07:51:10;94332.38;;;44.82;22.66
6345;BME280;3205;42.666;23.264;2023-07-29T07:53:37;94341.19;;;45.15;22.88
6345;BME280;3205;42.666;23.264;2023-07-29T07:56:03;94342.94;;;44.25;22.90
6345;BME280;3205;42.666;23.264;2023-07-29T07:58:30;94337.88;;;44.17;22.92
6345;BME280;3205;42.666;23.264;2023-07-29T08:01:01;94343.59;;;44.46;22.20
6345;BME280;3205;42.666;23.264;2023-07-29T08:03:27;94344.28;;;44.75;22.08
6345;BME280;3205;42.666;23.264;2023-07-29T08:05:53;94342.97;;;44.83;21.15
6345;BME280;3205;42.666;23.264;2023-07-29T08:08:19;94337.25;;;44.96;21.72
6345;BME280;3205;42.666;23.264;2023-07-29T08:10:45;94331.69;;;44.38;22.91
6345;BME280;3205;42.666;23.264;2023-07-29T08:13:11;94335.06;;;44.09;23.08
6345;BME280;3205;42.666;23.264;2023-07-29T08:15:38;94347.09;;;44.32;22.11
6345;BME280;3205;42.666;23.264;2023-07-29T08:18:04;94347.81;;;44.90;22.34
6345;BME280;3205;42.666;23.264;2023-07-29T08:20:31;94349.66;;;44.65;21.19
6345;BME280;3205;42.666;23.264;2023-07-29T08:22:58;94347.91;;;45.57;21.39
6345;BME280;3205;42.666;23.264;2023-07-29T08:25:24;94344.53;;;45.59;20.63
6345;BME280;3205;42.666;23.264;2023-07-29T08:27:50;94345.00;;;43.42;22.28
6345;BME280;3205;42.666;23.264;2023-07-29T08:30:16;94347.25;;;42.49;22.64
6345;BME280;3205;42.666;23.264;2023-07-29T08:32:44;94346.25;;;41.87;24.21
6345;BME280;3205;42.666;23.264;2023-07-29T08:35:10;94336.84;;;43.43;23.26
6345;BME280;3205;42.666;23.264;2023-07-29T08:37:36;94342.00;;;43.88;22.55
6345;BME280;3205;42.666;23.264;2023-07-29T08:40:02;94345.41;;;42.84;23.29
6345;BME280;3205;42.666;23.264;2023-07-29T08:42:31;94336.72;;;43.29;23.20
6345;BME280;3205;42.666;23.264;2023-07-29T08:45:04;94329.03;;;44.83;22.37
6345;BME280;3205;42.666;23.264;2023-07-29T08:47:32;94321.53;;;43.50;22.37
6345;BME280;3205;42.666;23.264;2023-07-29T08:49:59;94322.41;;;43.04;22.58
6345;BME280;3205;42.666;23.264;2023-07-29T08:52:27;94314.03;;;43.73;22.77
6345;BME280;3205;42.666;23.264;2023-07-29T08:54:55;94321.25;;;43.41;22.09
6345;BME280;3205;42.666;23.264;2023-07-29T08:57:23;94317.59;;;43.46;23.33
6345;BME280;3205;42.666;23.264;2023-07-29T08:59:49;94315.16;;;44.05;22.32
6345;BME280;3205;42.666;23.264;2023-07-29T09:02:15;94320.50;;;45.11;22.15
6345;BME280;3205;42.666;23.264;2023-07-29T09:04:42;94319.72;;;45.92;20.79
6345;BME280;3205;42.666;23.264;2023-07-29T09:07:09;94320.00;;;46.26;21.05
6345;BME280;3205;42.666;23.264;2023-07-29T09:09:36;94317.75;;;46.64;20.16
6345;BME280;3205;42.666;23.264;2023-07-29T09:12:02;94310.06;;;46.72;20.63
6345;BME280;3205;42.666;23.264;2023-07-29T09:14:29;94308.06;;;46.65;21.01
6345;BME280;3205;42.666;23.264;2023-07-29T09:16:55;94307.97;;;46.48;21.09
6345;BME280;3205;42.666;23.264;2023-07-29T09:19:25;94304.25;;;45.91;20.42
6345;BME280;3205;42.666;23.264;2023-07-29T09:21:51;94294.63;;;45.10;20.42
6345;BME280;3205;42.666;23.264;2023-07-29T09:24:18;94297.59;;;45.65;20.39
6345;BME280;3205;42.666;23.264;2023-07-29T09:26:49;94294.09;;;45.27;20.17
6345;BME280;3205;42.666;23.264;2023-07-29T09:29:16;94302.44;;;44.90;20.69
6345;BME280;3205;42.666;23.264;2023-07-29T09:31:47;94289.59;;;44.79;21.36
6345;BME280;3205;42.666;23.264;2023-07-29T09:34:15;94297.88;;;44.57;21.44
6345;BME280;3205;42.666;23.264;2023-07-29T09:36:41;94282.34;;;44.91;20.97
6345;BME280;3205;42.666;23.264;2023-07-29T09:39:11;94284.56;;;44.85;19.92
6345;BME280;3205;42.666;23.264;2023-07-29T09:41:38;94289.97;;;45.05;20.57
6345;BME280;3205;42.666;23.264;2023-07-29T09:44:04;94290.50;;;45.79;20.73
6345;BME280;3205;42.666;23.264;2023-07-29T09:46:33;94276.34;;;45.62;20.40
6345;BME280;3205;42.666;23.264;2023-07-29T09:49:00;94274.53;;;45.12;19.70
6345;BME280;3205;42.666;23.264;2023-07-29T09:51:27;94275.91;;;44.38;20.63
6345;BME280;3205;42.666;23.264;2023-07-29T09:53:53;94276.94;;;44.78;20.91
6345;BME280;3205;42.666;23.264;2023-07-29T09:56:24;94273.25;;;44.98;20.84
6345;BME280;3205;42.666;23.264;2023-07-29T09:58:52;94268.56;;;45.53;20.68
6345;BME280;3205;42.666;23.264;2023-07-29T10:01:18;94269.63;;;45.65;21.19
6345;BME280;3205;42.666;23.264;2023-07-29T10:03:44;94261.50;;;45.29;19.80
6345;BME280;3205;42.666;23.264;2023-07-29T10:06:11;94263.88;;;44.73;21.26
6345;BME280;3205;42.666;23.264;2023-07-29T10:08:39;94264.34;;;44.34;21.69
6345;BME280;3205;42.666;23.264;2023-07-29T10:11:10;94257.38;;;43.70;21.52
6345;BME280;3205;42.666;23.264;2023-07-29T10:13:37;94258.59;;;42.12;22.05
6345;BME280;3205;42.666;23.264;2023-07-29T10:16:05;94258.28;;;40.99;22.96
6345;BME280;3205;42.666;23.264;2023-07-29T10:18:32;94254.56;;;39.60;24.45
6345;BME280;3205;42.666;23.264;2023-07-29T10:21:00;94250.69;;;37.98;26.50
6345;BME280;3205;42.666;23.264;2023-07-29T10:23:29;94247.78;;;37.07;26.42
6345;BME280;3205;42.666;23.264;2023-07-29T10:26:02;94243.38;;;35.48;26.99
6345;BME280;3205;42.666;23.264;2023-07-29T10:28:29;94235.63;;;34.01;28.87
6345;BME280;3205;42.666;23.264;2023-07-29T10:30:56;94230.44;;;33.38;30.09
6345;BME280;3205;42.666;23.264;2023-07-29T10:33:23;94232.94;;;33.16;31.58
6345;BME280;3205;42.666;23.264;2023-07-29T10:35:50;94237.31;;;32.74;31.03
6345;BME280;3205;42.666;23.264;2023-07-29T10:38:19;94223.34;;;32.72;32.92
6345;BME280;3205;42.666;23.264;2023-07-29T10:40:50;94217.47;;;32.79;31.94
6345;BME280;3205;42.666;23.264;2023-07-29T10:43:19;94221.28;;;32.67;31.20
6345;BME280;3205;42.666;23.264;2023-07-29T10:45:49;94220.66;;;32.77;32.00
6345;BME280;3205;42.666;23.264;2023-07-29T10:48:39;94222.13;;;32.24;31.77
6345;BME280;3205;42.666;23.264;2023-07-29T10:51:26;94213.69;;;31.84;33.59
6345;BME280;3205;42.666;23.264;2023-07-29T10:53:53;94213.34;;;31.77;32.64
6345;BME280;3205;42.666;23.264;2023-07-29T10:56:30;94207.94;;;31.16;32.49
6345;BME280;3205;42.666;23.264;2023-07-29T10:58:58;94204.69;;;31.03;33.15
6345;BME280;3205;42.666;23.264;2023-07-29T11:01:29;94200.25;;;30.59;33.46
6345;BME280;3205;42.666;23.264;2023-07-29T11:04:25;94190.84;;;30.83;36.68
6345;BME280;3205;42.666;23.264;2023-07-29T11:07:23;94197.88;;;31.22;34.64
6345;BME280;3205;42.666;23.264;2023-07-29T11:09:57;94192.72;;;31.38;33.98
6345;BME280;3205;42.666;23.264;2023-07-29T11:12:41;94191.91;;;31.61;32.15
6345;BME280;3205;42.666;23.264;2023-07-29T11:15:19;94190.97;;;31.78;34.60
6345;BME280;3205;42.666;23.264;2023-07-29T11:17:49;94187.97;;;31.76;33.08
6345;BME280;3205;42.666;23.264;2023-07-29T11:20:18;94181.84;;;31.53;32.73
6345;BME280;3205;42.666;23.264;2023-07-29T11:22:44;94180.00;;;31.35;33.56
6345;BME280;3205;42.666;23.264;2023-07-29T11:25:12;94182.25;;;31.22;33.22
6345;BME280;3205;42.666;23.264;2023-07-29T11:27:39;94187.16;;;31.33;34.02
6345;BME280;3205;42.666;23.264;2023-07-29T11:30:07;94179.63;;;31.42;35.00
6345;BME280;3205;42.666;23.264;2023-07-29T11:32:34;94177.44;;;31.32;32.51
6345;BME280;3205;42.666;23.264;2023-07-29T11:35:05;94179.00;;;31.09;32.47
6345;BME280;3205;42.666;23.264;2023-07-29T11:37:33;94174.81;;;30.76;33.32
6345;BME280;3205;42.666;23.264;2023-07-29T11:40:00;94172.44;;;30.69;33.25
6345;BME280;3205;42.666;23.264;2023-07-29T11:42:26;94171.81;;;30.97;33.70
6345;BME280;3205;42.666;23.264;2023-07-29T11:44:52;94174.28;;;31.10;34.53
6345;BME280;3205;42.666;23.264;2023-07-29T11:47:19;94175.00;;;31.19;32.97
6345;BME280;3205;42.666;23.264;2023-07-29T11:49:45;94168.19;;;31.15;31.10
6345;BME280;3205;42.666;23.264;2023-07-29T11:52:12;94165.84;;;30.85;31.72
6345;BME280;3205;42.666;23.264;2023-07-29T11:54:39;94169.91;;;30.89;32.34
6345;BME280;3205;42.666;23.264;2023-07-29T11:57:06;94167.34;;;31.09;34.45
6345;BME280;3205;42.666;23.264;2023-07-29T11:59:34;94153.22;;;31.10;32.88
6345;BME280;3205;42.666;23.264;2023-07-29T12:02:00;94148.53;;;31.25;33.91
6345;BME280;3205;42.666;23.264;2023-07-29T12:04:27;94157.41;;;31.35;33.05
6345;BME280;3205;42.666;23.264;2023-07-29T12:06:54;94153.06;;;31.43;33.08
6345;BME280;3205;42.666;23.264;2023-07-29T12:09:21;94146.53;;;31.26;31.74
6345;BME280;3205;42.666;23.264;2023-07-29T12:11:48;94132.69;;;31.29;34.42
6345;BME280;3205;42.666;23.264;2023-07-29T12:14:16;94143.63;;;31.29;32.13
6345;BME280;3205;42.666;23.264;2023-07-29T12:16:43;94135.25;;;31.18;32.68
6345;BME280;3205;42.666;23.264;2023-07-29T12:19:12;94134.69;;;31.29;32.81
6345;BME280;3205;42.666;23.264;2023-07-29T12:21:38;94134.56;;;31.38;35.54
6345;BME280;3205;42.666;23.264;2023-07-29T12:24:04;94136.09;;;31.39;33.95
6345;BME280;3205;42.666;23.264;2023-07-29T12:26:31;94135.53;;;31.49;35.67
6345;BME280;3205;42.666;23.264;2023-07-29T12:28:57;94129.03;;;31.32;32.65
6345;BME280;3205;42.666;23.264;2023-07-29T12:31:31;94135.31;;;31.24;32.70
6345;BME280;3205;42.666;23.264;2023-07-29T12:33:58;94128.56;;;31.19;32.46
6345;BME280;3205;42.666;23.264;2023-07-29T12:36:27;94133.53;;;31.35;35.18
6345;BME280;3205;42.666;23.264;2023-07-29T12:39:05;94131.84;;;31.38;33.93
6345;BME280;3205;42.666;23.264;2023-07-29T12:41:32;94134.31;;;31.36;33.72
6345;BME280;3205;42.666;23.264;2023-07-29T12:43:59;94129.31;;;31.49;31.38
6345;BME280;3205;42.666;23.264;2023-07-29T12:46:29;94129.59;;;31.51;34.52
6345;BME280;3205;42.666;23.264;2023-07-29T12:48:55;94128.56;;;31.48;35.79
6345;BME280;3205;42.666;23.264;2023-07-29T12:51:21;94133.19;;;31.71;35.40
6345;BME280;3205;42.666;23.264;2023-07-29T12:53:47;94133.19;;;31.71;34.75
6345;BME280;3205;42.666;23.264;2023-07-29T12:56:13;94131.75;;;31.90;33.54
6345;BME280;3205;42.666;23.264;2023-07-29T12:58:39;94127.97;;;32.02;34.74
6345;BME280;3205;42.666;23.264;2023-07-29T13:01:06;94128.63;;;32.11;33.96
6345;BME280;3205;42.666;23.264;2023-07-29T13:03:32;94131.38;;;32.11;33.58
6345;BME280;3205;42.666;23.264;2023-07-29T13:05:58;94131.03;;;31.89;31.60
6345;BME280;3205;42.666;23.264;2023-07-29T13:08:24;94131.66;;;31.84;34.80